LFBG 221130Z AUTO 23003KT 170V270 8000 NSC 12/04 Q1034

ElémentsDécodage
LFBG Station météo située sur l'aérodrome de COGNAC Châteaubernard
221130Z émis le 22 du mois à 11h30 UTC
AUTO Bulletin édité par un automate
23003KT vent du 230°, 03 noeuds
170V270 vent de direction variable entre 170° et 270°
8000 visibilité horizontale de 8000 mètres
NSC pas de nuage significatif (pas de nuage <5000ft, pas de CB)
12/04 température 12°C, point de rosée 04°C
 soit une humidité relative de 58%
Q1034 la pression au niveau de la mer (QNH) est de 1034 hPa